LFRH 210400Z AUTO 03006KT 9999 OVC039 01/00 Q1038 TEMPO 4000 BR

ElémentsDécodage
LFRH Station météo située sur l'aérodrome de LORIENT Lann-Bihoué
210400Z émis le 21 du mois à 04h00 UTC
AUTO Bulletin édité par un automate
03006KT vent du 030°, 06 noeuds
9999 visibilité horizontale supérieure à 10 Km
OVC039 couverture nuageuse totale (8/8) à 3900 pieds
01/00 température 01°C, point de rosée 00°C
 soit une humidité relative de 93%
Q1038 la pression au niveau de la mer (QNH) est de 1038 hPa
TEMPO fluctuation temporaire prévue
4000 visibilité horizontale de 4000 mètres
BR brume